Time;durP1;ratioP1;P1;durP2;ratioP2;P2;SDS_P1;SDS_P2;PMS_P1;PMS_P2;Temp;Humidity;BMP_temperature;BMP_pressure;BME280_temperature;BME280_humidity;BME280_pressure;Samples;Min_cycle;Max_cycle;Signal;HPM_P1;HPM_P2
2024/02/22 00:00:21;;;;;;;46.65;8.57;;;;;;;;;;4995990;28;20532;-59
2024/02/22 00:03:15;;;;;;;26.33;8.68;;;;;;;;;;4995615;28;20390;-59
2024/02/22 00:06:02;;;;;;;28.35;7.95;;;;;;;;;;4995889;28;20057;-61
2024/02/22 00:08:56;;;;;;;38.03;8.75;;;;;;;;;;4995802;28;20112;-62
2024/02/22 00:11:43;;;;;;;23.40;8.18;;;;;;;;;;4995841;28;20057;-59
2024/02/22 00:14:37;;;;;;;30.85;9.07;;;;;;;;;;4997220;28;20149;-58
2024/02/22 00:17:31;;;;;;;33.10;9.88;;;;;;;;;;4991850;28;20050;-58
2024/02/22 00:20:13;;;;;;;40.90;9.40;;;;;;;;;;4997715;28;20536;-57
2024/02/22 00:22:41;;;;;;;29.13;9.63;;;;;;;;;;4994192;28;20062;-58
2024/02/22 00:25:15;;;;;;;31.90;9.35;;;;;;;;;;4984145;28;20183;-56
2024/02/22 00:28:03;;;;;;;29.85;8.38;;;;;;;;;;4992383;28;20057;-57
2024/02/22 00:30:56;;;;;;;38.50;10.30;;;;;;;;;;4992938;28;20046;-54
2024/02/22 00:33:45;;;;;;;29.52;8.63;;;;;;;;;;4993842;28;20453;-54
2024/02/22 00:36:41;;;;;;;29.77;9.30;;;;;;;;;;4996230;28;20450;-53
2024/02/22 00:39:28;;;;;;;25.30;9.65;;;;;;;;;;4991871;28;20052;-54
2024/02/22 00:42:22;;;;;;;34.30;8.75;;;;;;;;;;4996992;28;20054;-58
2024/02/22 00:45:10;;;;;;;42.03;10.75;;;;;;;;;;4996016;28;20538;-64
2024/02/22 00:48:04;;;;;;;34.95;9.77;;;;;;;;;;4990861;28;20062;-64
2024/02/22 00:50:52;;;;;;;39.20;11.75;;;;;;;;;;4993694;28;20069;-64
2024/02/22 00:53:45;;;;;;;34.20;11.07;;;;;;;;;;4994528;28;20153;-67
2024/02/22 00:56:32;;;;;;;41.38;11.90;;;;;;;;;;4994414;28;20051;-50
2024/02/22 00:59:31;;;;;;;36.45;11.30;;;;;;;;;;4991608;28;20136;-52
2024/02/22 01:02:14;;;;;;;36.10;10.88;;;;;;;;;;4994068;28;20120;-48
2024/02/22 01:05:14;;;;;;;38.40;11.90;;;;;;;;;;4992536;28;20116;-49
2024/02/22 01:08:03;;;;;;;34.70;12.00;;;;;;;;;;4991451;28;20046;-49
2024/02/22 01:10:55;;;;;;;40.60;12.55;;;;;;;;;;4993400;28;20119;-51
2024/02/22 01:13:42;;;;;;;39.47;11.43;;;;;;;;;;4989432;28;20049;-61
2024/02/22 01:16:43;;;;;;;38.75;10.10;;;;;;;;;;4993652;28;20493;-61
2024/02/22 01:19:37;;;;;;;39.17;12.48;;;;;;;;;;4991967;28;20068;-61
2024/02/22 01:22:30;;;;;;;38.10;12.57;;;;;;;;;;4995199;28;20069;-59
2024/02/22 01:25:17;;;;;;;37.22;12.02;;;;;;;;;;4997742;28;20426;-65
2024/02/22 01:28:12;;;;;;;51.10;13.88;;;;;;;;;;4989773;28;20217;-63
2024/02/22 01:30:58;;;;;;;41.83;13.10;;;;;;;;;;4990185;28;20088;-64
2024/02/22 01:33:52;;;;;;;43.20;14.93;;;;;;;;;;4992908;28;20045;-63
2024/02/22 01:36:47;;;;;;;50.20;14.85;;;;;;;;;;4997237;28;20673;-64
2024/02/22 01:39:33;;;;;;;46.90;15.40;;;;;;;;;;4994093;28;20325;-58
2024/02/22 01:42:27;;;;;;;53.78;17.10;;;;;;;;;;4995174;28;20057;-57
2024/02/22 01:45:14;;;;;;;51.10;17.02;;;;;;;;;;4991120;28;20822;-57
2024/02/22 01:48:08;;;;;;;56.50;18.15;;;;;;;;;;4991351;28;20596;-58
2024/02/22 01:50:56;;;;;;;54.25;19.83;;;;;;;;;;4994503;28;20047;-55
2024/02/22 01:53:50;;;;;;;47.38;17.70;;;;;;;;;;4995103;28;20066;-54
2024/02/22 01:56:44;;;;;;;50.65;19.08;;;;;;;;;;4996532;28;20066;-55
2024/02/22 01:59:32;;;;;;;51.90;18.60;;;;;;;;;;4992595;28;20062;-52
2024/02/22 02:02:27;;;;;;;68.15;21.50;;;;;;;;;;4992206;28;20510;-54
2024/02/22 02:05:14;;;;;;;54.70;20.75;;;;;;;;;;4994981;28;20057;-52
2024/02/22 02:08:07;;;;;;;53.13;22.05;;;;;;;;;;4986604;28;20481;-64
2024/02/22 02:10:54;;;;;;;56.33;21.88;;;;;;;;;;4989918;28;20050;-64
2024/02/22 02:13:48;;;;;;;52.45;21.73;;;;;;;;;;4984184;28;20109;-65
2024/02/22 02:16:42;;;;;;;53.58;19.80;;;;;;;;;;4992761;28;20057;-64
2024/02/22 02:19:43;;;;;;;56.35;22.40;;;;;;;;;;4991416;28;20088;-58
2024/02/22 02:22:30;;;;;;;59.35;23.52;;;;;;;;;;4994074;28;20520;-56
2024/02/22 02:25:25;;;;;;;61.17;23.92;;;;;;;;;;4996938;28;20046;-51
2024/02/22 02:28:12;;;;;;;61.40;24.87;;;;;;;;;;4991649;28;20117;-53
2024/02/22 02:31:06;;;;;;;67.38;24.20;;;;;;;;;;4987615;28;20675;-56
2024/02/22 02:33:53;;;;;;;59.92;24.25;;;;;;;;;;4993479;28;20099;-52
2024/02/22 02:36:47;;;;;;;57.22;24.15;;;;;;;;;;4995100;28;20522;-46
2024/02/22 02:39:34;;;;;;;63.70;25.85;;;;;;;;;;4990807;28;20104;-53
2024/02/22 02:42:28;;;;;;;65.20;26.33;;;;;;;;;;4996529;28;20140;-64
2024/02/22 02:45:15;;;;;;;72.03;26.88;;;;;;;;;;4983181;28;20503;-64
2024/02/22 02:48:09;;;;;;;60.00;24.48;;;;;;;;;;4991688;28;20501;-64
2024/02/22 02:50:58;;;;;;;67.03;26.52;;;;;;;;;;4990440;28;21358;-64
2024/02/22 02:53:50;;;;;;;60.97;25.45;;;;;;;;;;4993502;28;20054;-64
2024/02/22 02:56:37;;;;;;;65.00;26.30;;;;;;;;;;4994529;28;20085;-53
2024/02/22 02:59:31;;;;;;;58.97;25.23;;;;;;;;;;4994863;28;20058;-54
2024/02/22 03:02:20;;;;;;;59.97;27.73;;;;;;;;;;4993255;28;21025;-51
2024/02/22 03:05:14;;;;;;;63.22;26.60;;;;;;;;;;4991326;28;20062;-63
2024/02/22 03:08:02;;;;;;;55.72;24.73;;;;;;;;;;4989326;28;20480;-45
2024/02/22 03:10:55;;;;;;;71.40;26.83;;;;;;;;;;4994920;28;20050;-58
2024/02/22 03:13:42;;;;;;;63.90;26.92;;;;;;;;;;4988402;28;20054;-58
2024/02/22 03:16:46;;;;;;;60.88;24.92;;;;;;;;;;4987993;28;20053;-60
2024/02/22 03:19:40;;;;;;;61.20;25.40;;;;;;;;;;4995495;28;20100;-59
2024/02/22 03:22:33;;;;;;;54.65;25.33;;;;;;;;;;4992860;28;20064;-58
2024/02/22 03:25:20;;;;;;;63.80;25.20;;;;;;;;;;4992342;28;20058;-49
2024/02/22 03:28:16;;;;;;;53.35;23.58;;;;;;;;;;4991785;28;20514;-48
2024/02/22 03:31:02;;;;;;;60.28;24.88;;;;;;;;;;4993475;28;20056;-46
2024/02/22 03:33:58;;;;;;;57.38;24.58;;;;;;;;;;4992497;28;20050;-64
2024/02/22 03:36:46;;;;;;;61.38;22.88;;;;;;;;;;4989684;28;20061;-64
2024/02/22 03:39:39;;;;;;;55.90;24.08;;;;;;;;;;4993697;28;20494;-65
2024/02/22 03:42:24;;;;;;;65.78;25.63;;;;;;;;;;4992087;28;20046;-64
2024/02/22 03:45:18;;;;;;;62.00;26.00;;;;;;;;;;4994203;28;20061;-65
2024/02/22 03:48:06;;;;;;;62.22;24.73;;;;;;;;;;4993850;28;20168;-64
2024/02/22 03:51:00;;;;;;;63.00;26.63;;;;;;;;;;4990944;28;20456;-64
2024/02/22 03:53:47;;;;;;;64.85;25.92;;;;;;;;;;4993846;28;20047;-59
2024/02/22 03:56:41;;;;;;;60.72;23.92;;;;;;;;;;4995506;28;20501;-57
2024/02/22 03:59:28;;;;;;;56.97;24.20;;;;;;;;;;4993475;28;20560;-56
2024/02/22 04:02:22;;;;;;;54.45;24.92;;;;;;;;;;4996290;28;20054;-62
2024/02/22 04:05:10;;;;;;;61.60;26.20;;;;;;;;;;4992517;28;20463;-54
2024/02/22 04:08:03;;;;;;;64.07;25.65;;;;;;;;;;4988916;28;20171;-58
2024/02/22 04:10:51;;;;;;;59.45;23.52;;;;;;;;;;4999425;28;20061;-56
2024/02/22 04:13:45;;;;;;;61.28;25.35;;;;;;;;;;4995045;28;20189;-56
2024/02/22 04:16:33;;;;;;;61.55;25.60;;;;;;;;;;4995841;28;20054;-56
2024/02/22 04:19:33;;;;;;;70.22;26.17;;;;;;;;;;5000683;28;20046;-57
2024/02/22 04:22:20;;;;;;;58.22;25.08;;;;;;;;;;4998598;28;20576;-63
2024/02/22 04:25:15;;;;;;;58.90;24.52;;;;;;;;;;4995594;28;20429;-63
2024/02/22 04:28:03;;;;;;;65.47;26.15;;;;;;;;;;5001166;28;20117;-63
2024/02/22 04:30:55;;;;;;;56.55;26.27;;;;;;;;;;4997561;28;20046;-51
2024/02/22 04:33:42;;;;;;;64.13;23.45;;;;;;;;;;4993690;28;20137;-64
2024/02/22 04:36:42;;;;;;;63.75;25.20;;;;;;;;;;4995610;28;20167;-62
2024/02/22 04:39:26;;;;;;;61.53;25.50;;;;;;;;;;4999510;28;20054;-63
2024/02/22 04:42:20;;;;;;;75.75;26.65;;;;;;;;;;4997328;28;20506;-63
2024/02/22 04:45:08;;;;;;;58.00;24.35;;;;;;;;;;4998061;28;20069;-63
2024/02/22 04:48:03;;;;;;;63.47;23.75;;;;;;;;;;4997609;28;20108;-63
2024/02/22 04:50:55;;;;;;;52.47;21.27;;;;;;;;;;4996703;28;20088;-58
2024/02/22 04:53:49;;;;;;;54.38;24.17;;;;;;;;;;4995568;28;20478;-56
2024/02/22 04:56:43;;;;;;;53.03;21.35;;;;;;;;;;4992376;28;20073;-58
2024/02/22 04:59:37;;;;;;;45.40;19.73;;;;;;;;;;4992503;28;20062;-61
2024/02/22 05:02:24;;;;;;;44.67;19.13;;;;;;;;;;4993343;28;20056;-66
2024/02/22 05:05:18;;;;;;;49.30;19.40;;;;;;;;;;4994582;28;20046;-65
2024/02/22 05:08:12;;;;;;;45.50;19.30;;;;;;;;;;4997306;28;20351;-65
2024/02/22 05:11:09;;;;;;;34.42;16.70;;;;;;;;;;4995230;28;20055;-69
2024/02/22 05:13:57;;;;;;;33.72;16.17;;;;;;;;;;4991840;28;20074;-65
2024/02/22 05:17:00;;;;;;;36.33;16.30;;;;;;;;;;4992622;28;20096;-65
2024/02/22 05:19:54;;;;;;;35.95;15.27;;;;;;;;;;4993482;28;20477;-58
2024/02/22 05:22:49;;;;;;;32.47;15.38;;;;;;;;;;4993346;28;20046;-61
2024/02/22 05:25:35;;;;;;;33.60;15.40;;;;;;;;;;4993491;28;20046;-61
2024/02/22 05:28:29;;;;;;;26.33;13.88;;;;;;;;;;4996549;28;20054;-60
2024/02/22 05:31:29;;;;;;;35.30;15.75;;;;;;;;;;4989533;28;20054;-61
2024/02/22 05:34:20;;;;;;;30.40;14.98;;;;;;;;;;4987842;28;20053;-60
2024/02/22 05:37:14;;;;;;;35.90;14.70;;;;;;;;;;4991039;28;20466;-45
2024/02/22 05:40:09;;;;;;;27.08;14.23;;;;;;;;;;4992815;28;20050;-52
2024/02/22 05:43:02;;;;;;;29.10;13.52;;;;;;;;;;4993914;28;20101;-50
2024/02/22 05:45:50;;;;;;;27.45;13.93;;;;;;;;;;4989412;28;20461;-52
2024/02/22 05:48:44;;;;;;;27.77;13.52;;;;;;;;;;4991696;28;20140;-53
2024/02/22 05:51:30;;;;;;;25.05;12.50;;;;;;;;;;4992513;28;20054;-50
2024/02/22 05:54:24;;;;;;;23.85;12.15;;;;;;;;;;4994420;28;20053;-65
2024/02/22 05:57:12;;;;;;;20.92;12.07;;;;;;;;;;4992385;28;20576;-54
2024/02/22 06:00:06;;;;;;;24.05;12.20;;;;;;;;;;4985259;28;20152;-51
2024/02/22 06:02:53;;;;;;;24.65;11.43;;;;;;;;;;4988904;28;20053;-51
2024/02/22 06:05:47;;;;;;;19.92;11.73;;;;;;;;;;4997471;28;20034;-52
2024/02/22 06:08:36;;;;;;;19.73;10.60;;;;;;;;;;4999382;28;20553;-51
2024/02/22 06:11:30;;;;;;;21.58;11.07;;;;;;;;;;5000135;28;20108;-53
2024/02/22 06:14:19;;;;;;;20.90;10.52;;;;;;;;;;4999044;28;20050;-58
2024/02/22 06:17:24;;;;;;;24.10;10.77;;;;;;;;;;4997891;28;20070;-62
2024/02/22 06:20:18;;;;;;;18.23;10.35;;;;;;;;;;4995816;28;20068;-62
2024/02/22 06:23:12;;;;;;;18.42;9.38;;;;;;;;;;5000026;28;20403;-62
2024/02/22 06:25:59;;;;;;;18.00;9.40;;;;;;;;;;4997608;28;20116;-62
2024/02/22 06:28:53;;;;;;;18.25;10.38;;;;;;;;;;4994054;28;20128;-62
2024/02/22 06:31:41;;;;;;;16.73;9.00;;;;;;;;;;5000735;28;20056;-53
2024/02/22 06:34:36;;;;;;;16.85;9.40;;;;;;;;;;4995850;28;20065;-62
2024/02/22 06:37:23;;;;;;;17.98;9.98;;;;;;;;;;4996631;28;20064;-62
2024/02/22 06:40:16;;;;;;;20.50;9.80;;;;;;;;;;4997216;28;20517;-62
2024/02/22 06:43:10;;;;;;;15.13;8.95;;;;;;;;;;4998334;28;20056;-62
2024/02/22 06:46:06;;;;;;;13.48;8.77;;;;;;;;;;4988951;28;20717;-63
2024/02/22 06:49:00;;;;;;;15.85;9.13;;;;;;;;;;4995176;28;20579;-52
2024/02/22 06:51:58;;;;;;;16.60;8.65;;;;;;;;;;4995962;28;20100;-60
2024/02/22 06:54:46;;;;;;;18.90;9.38;;;;;;;;;;4987817;28;20584;-50
2024/02/22 06:57:39;;;;;;;14.70;8.15;;;;;;;;;;4996364;28;20058;-49
2024/02/22 07:00:26;;;;;;;13.30;8.57;;;;;;;;;;4994195;28;20083;-49
2024/02/22 07:03:20;;;;;;;12.07;8.10;;;;;;;;;;4994699;28;20229;-48
2024/02/22 07:06:15;;;;;;;16.88;8.73;;;;;;;;;;4984911;28;20054;-48
2024/02/22 07:09:05;;;;;;;20.25;8.95;;;;;;;;;;4994647;28;20057;-63
2024/02/22 07:11:59;;;;;;;15.00;8.18;;;;;;;;;;4998211;28;20096;-64
2024/02/22 07:14:46;;;;;;;16.80;9.70;;;;;;;;;;4993868;28;20190;-64
2024/02/22 07:17:39;;;;;;;14.98;8.73;;;;;;;;;;4992851;28;20057;-64
2024/02/22 07:20:33;;;;;;;17.52;9.10;;;;;;;;;;4993117;28;20069;-63
2024/02/22 07:23:27;;;;;;;15.43;8.40;;;;;;;;;;4993792;28;20061;-64
2024/02/22 07:26:14;;;;;;;15.82;8.73;;;;;;;;;;4995569;28;20054;-56
2024/02/22 07:29:08;;;;;;;14.88;7.88;;;;;;;;;;4994491;28;20058;-47
2024/02/22 07:31:55;;;;;;;13.10;8.10;;;;;;;;;;4994937;28;20477;-48
2024/02/22 07:34:49;;;;;;;12.13;6.95;;;;;;;;;;4990266;28;20426;-46
2024/02/22 07:37:37;;;;;;;14.85;8.65;;;;;;;;;;4999964;28;20073;-48
2024/02/22 07:40:31;;;;;;;15.55;7.20;;;;;;;;;;4998051;28;20056;-50
2024/02/22 07:43:24;;;;;;;13.40;7.55;;;;;;;;;;5002925;28;20069;-46
2024/02/22 07:46:19;;;;;;;18.20;7.80;;;;;;;;;;4998046;28;20073;-61
2024/02/22 07:49:06;;;;;;;15.57;8.15;;;;;;;;;;4999613;28;20060;-57
2024/02/22 07:51:59;;;;;;;12.93;8.00;;;;;;;;;;5003363;28;20041;-58
2024/02/22 07:54:47;;;;;;;11.75;6.82;;;;;;;;;;5000087;28;20060;-57
2024/02/22 07:57:40;;;;;;;12.05;6.85;;;;;;;;;;4999536;28;20573;-56
2024/02/22 08:00:27;;;;;;;11.85;6.72;;;;;;;;;;4998172;28;20513;-55
2024/02/22 08:03:21;;;;;;;12.98;6.75;;;;;;;;;;4998596;28;20073;-58
2024/02/22 08:06:09;;;;;;;11.35;6.38;;;;;;;;;;4997769;28;20584;-54
2024/02/22 08:09:03;;;;;;;11.82;6.60;;;;;;;;;;4989926;28;20089;-56
2024/02/22 08:11:51;;;;;;;13.55;6.00;;;;;;;;;;4998848;28;20053;-57
2024/02/22 08:14:44;;;;;;;9.32;6.43;;;;;;;;;;4996444;28;20157;-59
2024/02/22 08:17:46;;;;;;;11.23;6.25;;;;;;;;;;4994396;28;20057;-58
2024/02/22 08:20:40;;;;;;;9.73;5.70;;;;;;;;;;4997441;28;20049;-57
2024/02/22 08:23:27;;;;;;;10.68;5.82;;;;;;;;;;4998131;28;20050;-62
2024/02/22 08:26:22;;;;;;;10.50;5.82;;;;;;;;;;4987382;28;20132;-64
2024/02/22 08:29:09;;;;;;;8.57;5.00;;;;;;;;;;4996967;28;20049;-64
2024/02/22 08:32:04;;;;;;;10.63;5.60;;;;;;;;;;4997468;28;20047;-64
2024/02/22 08:34:49;;;;;;;7.38;5.22;;;;;;;;;;4997490;28;20096;-63
2024/02/22 08:37:43;;;;;;;8.00;5.20;;;;;;;;;;5000407;28;20153;-63
2024/02/22 08:40:31;;;;;;;8.13;5.05;;;;;;;;;;5001755;28;20133;-63
2024/02/22 08:43:25;;;;;;;7.03;4.93;;;;;;;;;;4983443;28;20050;-58
2024/02/22 08:46:12;;;;;;;11.70;5.80;;;;;;;;;;4997316;28;20054;-56
2024/02/22 08:49:05;;;;;;;12.50;5.75;;;;;;;;;;4998330;28;20045;-55
2024/02/22 08:51:52;;;;;;;9.80;4.95;;;;;;;;;;4999890;28;20046;-55
2024/02/22 08:54:47;;;;;;;8.80;5.13;;;;;;;;;;4997040;28;20502;-57
2024/02/22 08:57:34;;;;;;;10.43;5.15;;;;;;;;;;4997662;28;20050;-56
2024/02/22 09:00:28;;;;;;;8.15;4.68;;;;;;;;;;4996202;28;20056;-64
2024/02/22 09:03:22;;;;;;;7.90;4.88;;;;;;;;;;4991663;28;20457;-64
2024/02/22 09:06:16;;;;;;;7.25;5.00;;;;;;;;;;4987231;28;20053;-64
2024/02/22 09:09:07;;;;;;;8.60;5.07;;;;;;;;;;4999210;28;20165;-64
2024/02/22 09:11:57;;;;;;;7.43;4.65;;;;;;;;;;4996541;28;20112;-64
2024/02/22 09:14:44;;;;;;;7.15;5.15;;;;;;;;;;4999236;28;20050;-64
2024/02/22 09:17:45;;;;;;;6.75;4.75;;;;;;;;;;5000511;28;20046;-62
2024/02/22 09:20:39;;;;;;;9.82;5.63;;;;;;;;;;4998999;28;20054;-48
2024/02/22 09:23:32;;;;;;;7.68;5.47;;;;;;;;;;4998237;28;20045;-50
2024/02/22 09:26:20;;;;;;;7.97;5.32;;;;;;;;;;4998076;28;20450;-51
2024/02/22 09:29:14;;;;;;;10.73;6.13;;;;;;;;;;4996907;28;20062;-52
2024/02/22 09:32:00;;;;;;;9.43;5.50;;;;;;;;;;4994908;28;20065;-55
2024/02/22 09:34:54;;;;;;;11.55;5.53;;;;;;;;;;4997797;28;20501;-57
2024/02/22 09:37:42;;;;;;;10.13;5.60;;;;;;;;;;4997158;28;20057;-46
2024/02/22 09:40:37;;;;;;;8.38;5.45;;;;;;;;;;4993994;28;20310;-57
2024/02/22 09:43:23;;;;;;;11.70;6.28;;;;;;;;;;4998213;28;20096;-55
2024/02/22 09:46:16;;;;;;;10.38;5.25;;;;;;;;;;4997910;28;20068;-56
2024/02/22 09:49:04;;;;;;;9.55;6.30;;;;;;;;;;4998715;28;20046;-56
2024/02/22 09:51:57;;;;;;;10.25;5.82;;;;;;;;;;4994433;28;20383;-56
2024/02/22 09:54:45;;;;;;;9.48;6.07;;;;;;;;;;4998087;28;20108;-62
2024/02/22 09:57:38;;;;;;;11.75;5.68;;;;;;;;;;4996363;28;20065;-46
2024/02/22 10:00:25;;;;;;;11.90;5.55;;;;;;;;;;4995484;28;20108;-46
2024/02/22 10:03:29;;;;;;;9.32;6.30;;;;;;;;;;4997324;28;20058;-51
2024/02/22 10:06:22;;;;;;;7.97;5.47;;;;;;;;;;4997811;28;20146;-49
2024/02/22 10:09:16;;;;;;;9.52;5.93;;;;;;;;;;4994714;28;20156;-46
2024/02/22 10:12:05;;;;;;;10.07;5.70;;;;;;;;;;4999228;28;20050;-45
2024/02/22 10:14:57;;;;;;;8.85;5.65;;;;;;;;;;4992439;28;20149;-47
2024/02/22 10:17:51;;;;;;;7.10;5.03;;;;;;;;;;4994095;28;20068;-47
2024/02/22 10:20:45;;;;;;;11.05;5.65;;;;;;;;;;4997406;28;20057;-46
2024/02/22 10:23:33;;;;;;;9.45;5.32;;;;;;;;;;4997376;28;20096;-48
2024/02/22 10:26:26;;;;;;;6.15;4.75;;;;;;;;;;4995862;28;20058;-45
2024/02/22 10:29:14;;;;;;;11.10;5.43;;;;;;;;;;4997120;28;20054;-50
2024/02/22 10:32:11;;;;;;;6.20;4.93;;;;;;;;;;4994013;28;20133;-58
2024/02/22 10:34:58;;;;;;;7.57;4.80;;;;;;;;;;4993673;28;20426;-62
2024/02/22 10:37:53;;;;;;;7.65;4.75;;;;;;;;;;4995190;28;20141;-61
2024/02/22 10:40:41;;;;;;;7.03;4.63;;;;;;;;;;4994142;28;20482;-63
2024/02/22 10:43:36;;;;;;;17.20;5.47;;;;;;;;;;4993842;28;20384;-62
2024/02/22 10:46:29;;;;;;;7.50;4.75;;;;;;;;;;4995148;28;20081;-62
2024/02/22 10:49:23;;;;;;;9.85;4.60;;;;;;;;;;4994920;28;20054;-50
2024/02/22 10:52:11;;;;;;;8.35;4.75;;;;;;;;;;4995447;28;20046;-45
2024/02/22 10:55:09;;;;;;;7.82;4.72;;;;;;;;;;4994491;28;20221;-47
2024/02/22 10:57:54;;;;;;;6.03;4.40;;;;;;;;;;4992030;28;20605;-48
2024/02/22 11:00:52;;;;;;;6.05;4.60;;;;;;;;;;4995849;28;20058;-49
2024/02/22 11:03:40;;;;;;;6.20;4.25;;;;;;;;;;4996442;28;20205;-49
2024/02/22 11:06:40;;;;;;;5.85;4.45;;;;;;;;;;4986011;28;20054;-55
2024/02/22 11:09:26;;;;;;;6.30;4.72;;;;;;;;;;4997558;28;20599;-65
2024/02/22 11:12:21;;;;;;;7.55;4.72;;;;;;;;;;4994404;28;20076;-51
2024/02/22 11:15:14;;;;;;;6.97;4.72;;;;;;;;;;4991498;28;20062;-53
2024/02/22 11:18:29;;;;;;;7.80;4.80;;;;;;;;;;4992702;28;20073;-49
2024/02/22 11:21:28;;;;;;;7.95;4.57;;;;;;;;;;4990211;28;20065;-52
2024/02/22 11:24:26;;;;;;;7.78;5.30;;;;;;;;;;4994399;28;20050;-54
2024/02/22 11:27:17;;;;;;;11.35;5.00;;;;;;;;;;4992932;28;20053;-59
2024/02/22 11:30:15;;;;;;;6.88;4.90;;;;;;;;;;4993844;28;20058;-53
2024/02/22 11:33:02;;;;;;;8.80;4.78;;;;;;;;;;4994225;28;20054;-54
2024/02/22 11:35:57;;;;;;;6.63;4.32;;;;;;;;;;4997018;28;20159;-52
2024/02/22 11:38:45;;;;;;;7.90;4.90;;;;;;;;;;4997532;28;20054;-51
2024/02/22 11:41:40;;;;;;;4.93;3.92;;;;;;;;;;4994728;28;20113;-54
2024/02/22 11:44:33;;;;;;;6.97;3.97;;;;;;;;;;4990663;28;20054;-59
2024/02/22 11:47:26;;;;;;;6.10;4.10;;;;;;;;;;4998297;28;20054;-58
2024/02/22 11:50:17;;;;;;;6.78;4.07;;;;;;;;;;4997315;28;20057;-59
2024/02/22 11:53:11;;;;;;;6.95;4.13;;;;;;;;;;4993494;28;20134;-59
2024/02/22 11:55:58;;;;;;;6.35;3.67;;;;;;;;;;4996467;28;20097;-59
2024/02/22 11:58:55;;;;;;;4.25;3.08;;;;;;;;;;4994733;28;20061;-58
2024/02/22 12:01:42;;;;;;;5.40;3.70;;;;;;;;;;4995414;28;20072;-56
2024/02/22 12:04:37;;;;;;;5.53;3.65;;;;;;;;;;4995224;28;20556;-58
2024/02/22 12:07:24;;;;;;;4.00;3.25;;;;;;;;;;4991335;28;20209;-61
2024/02/22 12:10:17;;;;;;;4.32;3.05;;;;;;;;;;4996689;28;20461;-61
2024/02/22 12:13:05;;;;;;;5.07;2.78;;;;;;;;;;4994635;28;20703;-60
2024/02/22 12:16:08;;;;;;;3.33;2.75;;;;;;;;;;4990128;28;20046;-61
2024/02/22 12:19:02;;;;;;;5.03;2.70;;;;;;;;;;4987675;28;20458;-60
2024/02/22 12:22:00;;;;;;;3.97;3.08;;;;;;;;;;4992316;28;20057;-65
2024/02/22 12:24:48;;;;;;;4.30;2.83;;;;;;;;;;4995695;28;20050;-64
2024/02/22 12:27:40;;;;;;;4.35;2.65;;;;;;;;;;4996451;28;20116;-64
2024/02/22 12:30:27;;;;;;;3.35;2.45;;;;;;;;;;5001423;28;20042;-63
2024/02/22 12:33:22;;;;;;;2.90;2.60;;;;;;;;;;4992535;28;20073;-63
2024/02/22 12:36:09;;;;;;;3.87;2.43;;;;;;;;;;4998045;28;20053;-64
2024/02/22 12:39:03;;;;;;;4.00;2.53;;;;;;;;;;5000704;28;20058;-64
2024/02/22 12:41:50;;;;;;;5.22;2.60;;;;;;;;;;4996018;28;20527;-64
2024/02/22 12:44:44;;;;;;;5.70;2.33;;;;;;;;;;5002255;28;20054;-64
2024/02/22 12:47:31;;;;;;;4.63;2.50;;;;;;;;;;4990876;28;20061;-62
2024/02/22 12:50:25;;;;;;;4.60;2.80;;;;;;;;;;4997171;28;20053;-64
2024/02/22 12:53:19;;;;;;;4.35;2.90;;;;;;;;;;4997108;28;20054;-64
2024/02/22 12:56:06;;;;;;;3.90;2.53;;;;;;;;;;4995137;28;20501;-64
2024/02/22 12:59:04;;;;;;;3.88;3.00;;;;;;;;;;4995813;28;20927;-61
2024/02/22 13:01:52;;;;;;;3.50;2.70;;;;;;;;;;4996733;28;20054;-58
2024/02/22 13:04:45;;;;;;;4.57;3.00;;;;;;;;;;4995616;28;20072;-60
2024/02/22 13:07:33;;;;;;;4.22;2.90;;;;;;;;;;4998670;28;20046;-56
2024/02/22 13:10:29;;;;;;;5.97;3.22;;;;;;;;;;4994323;28;20469;-57
2024/02/22 13:13:16;;;;;;;4.25;3.42;;;;;;;;;;4996475;28;20131;-57
2024/02/22 13:16:10;;;;;;;4.30;3.10;;;;;;;;;;4994235;28;20137;-55
2024/02/22 13:19:12;;;;;;;5.30;3.30;;;;;;;;;;4996962;28;20072;-61
2024/02/22 13:22:05;;;;;;;5.93;3.15;;;;;;;;;;4995467;28;20505;-62
2024/02/22 13:24:59;;;;;;;4.63;3.00;;;;;;;;;;4999030;28;20054;-60
2024/02/22 13:27:47;;;;;;;6.55;3.80;;;;;;;;;;4995133;28;20417;-61
2024/02/22 13:30:41;;;;;;;6.97;3.30;;;;;;;;;;4995325;28;20104;-61
2024/02/22 13:33:29;;;;;;;6.63;3.70;;;;;;;;;;4993769;28;20104;-53
2024/02/22 13:36:23;;;;;;;5.72;3.90;;;;;;;;;;4998631;28;20520;-58
2024/02/22 13:39:10;;;;;;;7.30;3.63;;;;;;;;;;4998185;28;20062;-54
2024/02/22 13:42:04;;;;;;;7.85;4.55;;;;;;;;;;4994182;28;20054;-54
2024/02/22 13:44:51;;;;;;;6.43;3.30;;;;;;;;;;4992228;28;20054;-51
2024/02/22 13:47:46;;;;;;;7.30;4.22;;;;;;;;;;4997060;28;20534;-48
2024/02/22 13:50:40;;;;;;;7.90;3.80;;;;;;;;;;4993997;28;20046;-55
2024/02/22 13:53:27;;;;;;;6.73;3.33;;;;;;;;;;4998016;28;20050;-49
2024/02/22 13:56:21;;;;;;;8.27;3.65;;;;;;;;;;4994423;28;20600;-65
2024/02/22 13:59:09;;;;;;;6.20;3.67;;;;;;;;;;4996121;28;20054;-63
2024/02/22 14:02:02;;;;;;;7.18;4.40;;;;;;;;;;4997125;28;20128;-64
2024/02/22 14:04:50;;;;;;;8.57;3.78;;;;;;;;;;4993690;28;20058;-64
2024/02/22 14:07:51;;;;;;;7.88;4.53;;;;;;;;;;4993127;28;20058;-64
2024/02/22 14:10:32;;;;;;;6.78;3.90;;;;;;;;;;4997722;28;20140;-61
2024/02/22 14:13:28;;;;;;;7.50;4.05;;;;;;;;;;4988704;28;20120;-53
2024/02/22 14:16:20;;;;;;;7.05;4.55;;;;;;;;;;4993983;28;20076;-47
2024/02/22 14:19:23;;;;;;;6.45;4.18;;;;;;;;;;4994924;28;20672;-51
2024/02/22 14:22:15;;;;;;;7.10;4.25;;;;;;;;;;4994054;28;20061;-47
2024/02/22 14:25:09;;;;;;;9.23;4.38;;;;;;;;;;4996114;28;20062;-45
2024/02/22 14:27:57;;;;;;;6.55;4.03;;;;;;;;;;4995496;28;20049;-46
2024/02/22 14:30:50;;;;;;;8.57;4.80;;;;;;;;;;4993304;28;20076;-55
2024/02/22 14:33:44;;;;;;;5.88;4.68;;;;;;;;;;4996610;28;20131;-59
2024/02/22 14:36:38;;;;;;;8.48;3.97;;;;;;;;;;4979599;28;20065;-57
2024/02/22 14:39:34;;;;;;;6.50;4.35;;;;;;;;;;4991677;28;20529;-56
2024/02/22 14:42:26;;;;;;;6.50;4.45;;;;;;;;;;4991263;28;20061;-57
2024/02/22 14:45:21;;;;;;;7.53;4.22;;;;;;;;;;4994191;28;20050;-59
2024/02/22 14:48:11;;;;;;;7.53;4.95;;;;;;;;;;4992758;28;20132;-56
2024/02/22 14:51:04;;;;;;;8.25;3.83;;;;;;;;;;4993581;28;20054;-60
2024/02/22 14:53:57;;;;;;;6.40;4.03;;;;;;;;;;4995515;28;20043;-62
2024/02/22 14:56:48;;;;;;;6.13;4.25;;;;;;;;;;4991508;28;20050;-61
2024/02/22 14:59:38;;;;;;;8.45;4.05;;;;;;;;;;4993589;28;20117;-61
2024/02/22 15:02:25;;;;;;;9.55;4.25;;;;;;;;;;4993989;28;20050;-61
2024/02/22 15:05:19;;;;;;;5.78;3.75;;;;;;;;;;4990937;28;20057;-49
2024/02/22 15:08:07;;;;;;;8.98;4.18;;;;;;;;;;4993330;28;20213;-47
2024/02/22 15:11:00;;;;;;;6.10;3.75;;;;;;;;;;4989640;28;20442;-58
2024/02/22 15:13:50;;;;;;;6.50;3.70;;;;;;;;;;4991725;28;20050;-59
2024/02/22 15:16:43;;;;;;;6.90;3.78;;;;;;;;;;4991892;28;20821;-58
2024/02/22 15:19:35;;;;;;;4.35;3.60;;;;;;;;;;4989240;28;20511;-59
2024/02/22 15:22:28;;;;;;;;;;;;;;;;;;4994635;28;20577;-58
2024/02/22 15:25:15;;;;;;;4.63;3.20;;;;;;;;;;4992239;28;19930;-46
2024/02/22 15:28:09;;;;;;;7.75;3.95;;;;;;;;;;4992397;28;20148;-56
2024/02/22 15:30:57;;;;;;;5.03;3.40;;;;;;;;;;4993211;28;20513;-56
2024/02/22 15:33:50;;;;;;;5.97;3.45;;;;;;;;;;4995073;28;20514;-54
2024/02/22 15:36:44;;;;;;;5.18;3.15;;;;;;;;;;4985517;28;20051;-54
2024/02/22 15:39:33;;;;;;;4.47;3.30;;;;;;;;;;4987125;28;20112;-56
2024/02/22 15:42:25;;;;;;;5.25;3.05;;;;;;;;;;4986574;28;20053;-64
2024/02/22 15:45:13;;;;;;;5.05;3.30;;;;;;;;;;4989719;28;20060;-52
2024/02/22 15:48:06;;;;;;;3.33;2.78;;;;;;;;;;4990644;28;20076;-57
2024/02/22 15:50:54;;;;;;;4.55;3.13;;;;;;;;;;4992874;28;20733;-56
2024/02/22 15:53:48;;;;;;;7.55;3.55;;;;;;;;;;4990215;28;20053;-56
2024/02/22 15:56:42;;;;;;;4.15;2.70;;;;;;;;;;4989830;28;20054;-56
2024/02/22 15:59:35;;;;;;;4.07;2.67;;;;;;;;;;4995266;28;20070;-53
2024/02/22 16:02:24;;;;;;;5.38;2.90;;;;;;;;;;4994526;28;20078;-65
2024/02/22 16:05:16;;;;;;;4.93;2.70;;;;;;;;;;4994163;28;20150;-64
2024/02/22 16:08:04;;;;;;;4.72;2.53;;;;;;;;;;4989917;28;20691;-63
2024/02/22 16:10:57;;;;;;;4.18;2.60;;;;;;;;;;4986114;28;20062;-64
2024/02/22 16:13:44;;;;;;;4.78;2.53;;;;;;;;;;4993090;28;20465;-65
2024/02/22 16:16:39;;;;;;;3.63;2.70;;;;;;;;;;4994766;28;20108;-64
2024/02/22 16:19:32;;;;;;;5.40;2.90;;;;;;;;;;4997470;28;20545;-60
2024/02/22 16:22:27;;;;;;;4.03;2.67;;;;;;;;;;4999991;28;20084;-64
2024/02/22 16:25:16;;;;;;;5.03;2.80;;;;;;;;;;4994960;28;20054;-64
2024/02/22 16:28:09;;;;;;;4.43;2.90;;;;;;;;;;4995135;28;20720;-63
2024/02/22 16:30:57;;;;;;;3.72;2.40;;;;;;;;;;4995928;28;21051;-64
2024/02/22 16:33:49;;;;;;;4.82;2.95;;;;;;;;;;4992273;28;20046;-64
2024/02/22 16:36:37;;;;;;;5.07;3.20;;;;;;;;;;5002479;28;20138;-63
2024/02/22 16:39:30;;;;;;;5.88;2.75;;;;;;;;;;4996237;28;20053;-53
2024/02/22 16:42:18;;;;;;;4.43;2.60;;;;;;;;;;4995392;28;20127;-48
2024/02/22 16:45:11;;;;;;;4.40;2.70;;;;;;;;;;5001939;28;20626;-47
2024/02/22 16:47:58;;;;;;;3.45;2.53;;;;;;;;;;4995449;28;20065;-46
2024/02/22 16:50:52;;;;;;;4.07;2.55;;;;;;;;;;4995875;28;20502;-46
2024/02/22 16:53:40;;;;;;;8.13;3.42;;;;;;;;;;4996766;28;20054;-44